Time;durP1;ratioP1;P1;durP2;ratioP2;P2;SDS_P1;SDS_P2;PMS_P1;PMS_P2;Temp;Humidity;BMP_temperature;BMP_pressure;BME280_temperature;BME280_humidity;BME280_pressure;Samples;Min_cycle;Max_cycle;Signal;HPM_P1;HPM_P2
2023/09/30 00:00:11;;;;;;;23.65;15.25;;;;;;;;;;1790195;80;25302;-53
2023/09/30 00:02:41;;;;;;;21.80;15.68;;;;;;;;;;1790107;80;25309;-53
2023/09/30 00:05:10;;;;;;;24.18;14.80;;;;;;;;;;1790187;80;25369;-53
2023/09/30 00:07:37;;;;;;;22.30;15.58;;;;;;;;;;1791921;80;26942;-53
2023/09/30 00:10:06;;;;;;;21.15;15.72;;;;;;;;;;1791762;80;25470;-52
2023/09/30 00:12:33;;;;;;;22.25;14.80;;;;;;;;;;1791981;80;25299;-53
2023/09/30 00:15:01;;;;;;;20.50;15.38;;;;;;;;;;1791803;80;25947;-54
2023/09/30 00:17:28;;;;;;;20.25;14.95;;;;;;;;;;1757818;80;25538;-56
2023/09/30 00:19:54;;;;;;;24.47;15.20;;;;;;;;;;1791867;80;27231;-56
2023/09/30 00:22:21;;;;;;;22.45;15.72;;;;;;;;;;1791651;80;25753;-52
2023/09/30 00:24:49;;;;;;;19.73;14.93;;;;;;;;;;1791864;80;25303;-54
2023/09/30 00:27:16;;;;;;;21.52;14.15;;;;;;;;;;1791780;80;25469;-55
2023/09/30 00:29:43;;;;;;;20.62;14.73;;;;;;;;;;1791893;80;25460;-55
2023/09/30 00:32:10;;;;;;;24.60;15.48;;;;;;;;;;1791839;80;27207;-55
2023/09/30 00:34:37;;;;;;;22.02;14.93;;;;;;;;;;1791770;80;25313;-54
2023/09/30 00:37:04;;;;;;;23.55;15.03;;;;;;;;;;1791831;80;25534;-57
2023/09/30 00:39:33;;;;;;;22.90;16.05;;;;;;;;;;1791879;80;26167;-53
2023/09/30 00:42:00;;;;;;;18.87;15.00;;;;;;;;;;1792103;80;25530;-54
2023/09/30 00:44:28;;;;;;;24.57;14.95;;;;;;;;;;1791807;80;27320;-54
2023/09/30 00:46:55;;;;;;;24.67;15.53;;;;;;;;;;1791699;80;25458;-53
2023/09/30 00:49:24;;;;;;;25.20;15.35;;;;;;;;;;1732434;80;25560;-57
2023/09/30 00:51:52;;;;;;;;;;;;;;;;;;1793549;80;26049;-56
2023/09/30 00:54:19;;;;;;;25.02;14.78;;;;;;;;;;1791859;80;25524;-56
2023/09/30 00:56:47;;;;;;;22.02;14.30;;;;;;;;;;1791821;80;25736;-55
2023/09/30 00:59:15;;;;;;;25.35;14.93;;;;;;;;;;1791750;80;25354;-54
2023/09/30 01:01:44;;;;;;;26.27;14.85;;;;;;;;;;1791821;80;25307;-53
2023/09/30 01:04:12;;;;;;;22.87;15.60;;;;;;;;;;1791747;80;25975;-53
2023/09/30 01:06:39;;;;;;;22.02;14.23;;;;;;;;;;1785832;80;25351;-55
2023/09/30 01:09:08;;;;;;;26.23;14.35;;;;;;;;;;1777913;80;27306;-53
2023/09/30 01:11:36;;;;;;;22.82;15.88;;;;;;;;;;1777868;80;25338;-53
2023/09/30 01:14:03;;;;;;;24.45;14.73;;;;;;;;;;1777980;80;25303;-54
2023/09/30 01:16:30;;;;;;;25.23;14.78;;;;;;;;;;1753696;80;25883;-54
2023/09/30 01:18:57;;;;;;;20.02;14.93;;;;;;;;;;1777943;80;25546;-56
2023/09/30 01:21:26;;;;;;;19.80;14.55;;;;;;;;;;1777930;80;27249;-56
2023/09/30 01:23:54;;;;;;;22.07;14.13;;;;;;;;;;1777837;80;27066;-57
2023/09/30 01:26:21;;;;;;;20.43;14.40;;;;;;;;;;1777954;80;25453;-54
2023/09/30 01:28:48;;;;;;;21.15;15.45;;;;;;;;;;1777942;80;25929;-55
2023/09/30 01:31:16;;;;;;;21.85;14.35;;;;;;;;;;1777986;80;25545;-55
2023/09/30 01:33:43;;;;;;;29.37;14.80;;;;;;;;;;1777938;80;27256;-53
2023/09/30 01:36:11;;;;;;;24.72;14.35;;;;;;;;;;1777993;80;25475;-57
2023/09/30 01:38:38;;;;;;;19.73;14.60;;;;;;;;;;1778135;80;25508;-53
2023/09/30 01:41:05;;;;;;;23.55;15.78;;;;;;;;;;1778077;80;25557;-53
2023/09/30 01:43:32;;;;;;;21.00;14.40;;;;;;;;;;1778091;80;25309;-56
2023/09/30 01:45:59;;;;;;;22.07;14.13;;;;;;;;;;1778084;80;27249;-54
2023/09/30 01:48:26;;;;;;;19.27;14.60;;;;;;;;;;1746476;80;25685;-56
2023/09/30 01:50:54;;;;;;;20.45;14.43;;;;;;;;;;1778066;80;25455;-55
2023/09/30 01:53:21;;;;;;;16.77;13.88;;;;;;;;;;1778070;80;25477;-57
2023/09/30 01:55:48;;;;;;;20.92;14.63;;;;;;;;;;1778052;80;25519;-54
2023/09/30 01:58:15;;;;;;;20.32;15.50;;;;;;;;;;1778070;80;29456;-53
2023/09/30 02:00:42;;;;;;;24.02;15.25;;;;;;;;;;1777964;80;25600;-53
2023/09/30 02:03:09;;;;;;;20.95;14.13;;;;;;;;;;1778052;80;25523;-53
2023/09/30 02:05:38;;;;;;;23.85;15.23;;;;;;;;;;1778084;80;25749;-55
2023/09/30 02:08:05;;;;;;;24.75;14.53;;;;;;;;;;1790549;80;25463;-53
2023/09/30 02:10:33;;;;;;;20.00;14.75;;;;;;;;;;1792007;80;29399;-55
2023/09/30 02:13:01;;;;;;;20.12;15.08;;;;;;;;;;1791877;80;25522;-56
2023/09/30 02:15:28;;;;;;;20.80;15.58;;;;;;;;;;1791977;80;25302;-56
2023/09/30 02:17:55;;;;;;;19.48;14.85;;;;;;;;;;1791927;80;25468;-52
2023/09/30 02:20:25;;;;;;;18.62;14.13;;;;;;;;;;1791980;80;25478;-53
2023/09/30 02:22:52;;;;;;;21.05;14.38;;;;;;;;;;1791950;80;27996;-51
2023/09/30 02:25:21;;;;;;;18.82;14.53;;;;;;;;;;1791833;80;25691;-51
2023/09/30 02:27:50;;;;;;;20.90;14.07;;;;;;;;;;1791926;80;25496;-51
2023/09/30 02:30:17;;;;;;;20.32;15.20;;;;;;;;;;1791928;80;25954;-52
2023/09/30 02:32:46;;;;;;;23.60;14.13;;;;;;;;;;1762914;80;25540;-51
2023/09/30 02:35:15;;;;;;;21.15;14.85;;;;;;;;;;1792027;80;27202;-52
2023/09/30 02:37:42;;;;;;;24.77;15.20;;;;;;;;;;1791944;80;25625;-52
2023/09/30 02:40:10;;;;;;;23.55;14.75;;;;;;;;;;1791944;80;25357;-51
2023/09/30 02:42:38;;;;;;;19.98;14.85;;;;;;;;;;1791884;80;25475;-51
2023/09/30 02:45:08;;;;;;;21.70;14.80;;;;;;;;;;1791946;80;25460;-51
2023/09/30 02:47:35;;;;;;;23.15;15.48;;;;;;;;;;1792073;80;27010;-51
2023/09/30 02:50:04;;;;;;;25.10;15.63;;;;;;;;;;1791833;80;25543;-51
2023/09/30 02:52:31;;;;;;;21.57;14.95;;;;;;;;;;1792055;80;25383;-52
2023/09/30 02:54:59;;;;;;;23.73;13.93;;;;;;;;;;1791887;80;25288;-53
2023/09/30 02:57:31;;;;;;;23.42;14.98;;;;;;;;;;1791948;80;25526;-57
2023/09/30 03:00:00;;;;;;;20.32;15.08;;;;;;;;;;1791958;80;27262;-55
2023/09/30 03:02:27;;;;;;;24.23;15.60;;;;;;;;;;1792123;80;25549;-57
2023/09/30 03:04:54;;;;;;;19.30;12.73;;;;;;;;;;1791938;80;25451;-56
2023/09/30 03:07:21;;;;;;;23.20;14.73;;;;;;;;;;1785881;80;25760;-57
2023/09/30 03:09:48;;;;;;;24.27;14.83;;;;;;;;;;1778071;80;25323;-57
2023/09/30 03:12:15;;;;;;;20.85;13.53;;;;;;;;;;1778043;80;27269;-52
2023/09/30 03:14:44;;;;;;;20.25;14.15;;;;;;;;;;1777908;80;25525;-52
2023/09/30 03:17:11;;;;;;;19.62;14.60;;;;;;;;;;1778173;80;25428;-53
2023/09/30 03:19:40;;;;;;;21.33;15.10;;;;;;;;;;1777940;80;27454;-53
2023/09/30 03:22:11;;;;;;;23.15;15.03;;;;;;;;;;1778189;80;25338;-54
2023/09/30 03:24:37;;;;;;;25.40;15.23;;;;;;;;;;1746505;80;27164;-53
2023/09/30 03:27:04;;;;;;;24.50;15.83;;;;;;;;;;1777945;80;25493;-52
2023/09/30 03:29:31;;;;;;;19.73;14.10;;;;;;;;;;1778005;80;25474;-53
2023/09/30 03:31:58;;;;;;;20.77;14.45;;;;;;;;;;1777955;80;25354;-52
2023/09/30 03:34:25;;;;;;;22.13;15.20;;;;;;;;;;1778066;80;25511;-53
2023/09/30 03:36:54;;;;;;;21.00;13.48;;;;;;;;;;1777999;80;27191;-52
2023/09/30 03:39:27;;;;;;;21.68;15.53;;;;;;;;;;1778003;80;25461;-52
2023/09/30 03:41:51;;;;;;;22.35;14.25;;;;;;;;;;1776943;80;25491;-52
2023/09/30 03:44:19;;;;;;;21.35;13.60;;;;;;;;;;1778091;80;25902;-52
2023/09/30 03:46:46;;;;;;;22.30;14.90;;;;;;;;;;1746487;80;25538;-53
2023/09/30 03:49:13;;;;;;;20.20;14.55;;;;;;;;;;1778010;80;27136;-52
2023/09/30 03:51:41;;;;;;;19.48;14.73;;;;;;;;;;1777943;80;25397;-53
2023/09/30 03:54:08;;;;;;;19.32;13.78;;;;;;;;;;1777981;80;25108;-53
2023/09/30 03:56:35;;;;;;;19.42;14.38;;;;;;;;;;1777938;80;26397;-52
2023/09/30 03:59:03;;;;;;;21.27;15.05;;;;;;;;;;1778032;80;25544;-51
2023/09/30 04:01:30;;;;;;;24.02;14.93;;;;;;;;;;1777989;80;27333;-53
2023/09/30 04:03:58;;;;;;;19.90;14.70;;;;;;;;;;1777863;80;25533;-53
2023/09/30 04:06:25;;;;;;;19.87;14.35;;;;;;;;;;1777992;80;25540;-51
2023/09/30 04:08:53;;;;;;;21.57;15.55;;;;;;;;;;1790550;80;25425;-52
2023/09/30 04:11:20;;;;;;;23.15;15.35;;;;;;;;;;1791883;80;25501;-52
2023/09/30 04:13:47;;;;;;;19.35;14.35;;;;;;;;;;1791873;80;27272;-52
2023/09/30 04:16:15;;;;;;;23.38;14.87;;;;;;;;;;1791875;80;25460;-54
2023/09/30 04:18:42;;;;;;;20.65;15.20;;;;;;;;;;1791952;80;25538;-55
2023/09/30 04:21:09;;;;;;;17.35;14.45;;;;;;;;;;1791915;80;25382;-56
2023/09/30 04:23:36;;;;;;;23.30;14.83;;;;;;;;;;1791938;80;25096;-55
2023/09/30 04:26:05;;;;;;;18.55;13.83;;;;;;;;;;1757596;80;28031;-54
2023/09/30 04:28:34;;;;;;;20.27;14.87;;;;;;;;;;1791926;80;25460;-53
2023/09/30 04:31:02;;;;;;;21.90;15.03;;;;;;;;;;1791948;80;25481;-56
2023/09/30 04:33:30;;;;;;;21.27;15.60;;;;;;;;;;1791934;80;25381;-56
2023/09/30 04:35:58;;;;;;;17.02;14.25;;;;;;;;;;1791809;80;25503;-56
2023/09/30 04:38:25;;;;;;;19.27;14.40;;;;;;;;;;1792092;80;27902;-56
2023/09/30 04:40:54;;;;;;;21.57;15.03;;;;;;;;;;1791740;80;25312;-54
2023/09/30 04:43:21;;;;;;;23.10;14.43;;;;;;;;;;1791846;80;25542;-52
2023/09/30 04:45:52;;;;;;;22.52;14.58;;;;;;;;;;1791784;80;25532;-55
2023/09/30 04:48:17;;;;;;;24.20;15.80;;;;;;;;;;1791589;80;25368;-54
2023/09/30 04:50:45;;;;;;;18.95;14.73;;;;;;;;;;1791937;80;27281;-54
2023/09/30 04:53:12;;;;;;;18.65;14.60;;;;;;;;;;1791754;80;25579;-56
2023/09/30 04:55:40;;;;;;;18.50;14.33;;;;;;;;;;1791812;80;25362;-52
2023/09/30 04:58:07;;;;;;;22.62;14.60;;;;;;;;;;1791805;80;25332;-52
2023/09/30 05:00:34;;;;;;;17.80;14.43;;;;;;;;;;1791830;80;25314;-54
2023/09/30 05:03:04;;;;;;;18.37;14.05;;;;;;;;;;1791782;80;27926;-56
2023/09/30 05:05:32;;;;;;;24.00;14.60;;;;;;;;;;1791638;80;25522;-56
2023/09/30 05:07:59;;;;;;;21.55;14.60;;;;;;;;;;1786240;80;25511;-54
2023/09/30 05:10:26;;;;;;;21.80;14.43;;;;;;;;;;1778102;80;25541;-53
2023/09/30 05:12:54;;;;;;;22.60;14.25;;;;;;;;;;1778123;80;25358;-56
2023/09/30 05:15:21;;;;;;;20.65;13.90;;;;;;;;;;1778070;80;27265;-53
2023/09/30 05:17:49;;;;;;;19.02;13.05;;;;;;;;;;1778043;80;25446;-52
2023/09/30 05:20:17;;;;;;;22.77;14.70;;;;;;;;;;1778141;80;25340;-55
2023/09/30 05:22:48;;;;;;;21.05;14.38;;;;;;;;;;1778085;80;25917;-56
2023/09/30 05:25:17;;;;;;;22.27;14.13;;;;;;;;;;1778156;80;25317;-53
2023/09/30 05:27:45;;;;;;;20.15;14.07;;;;;;;;;;1778129;80;27208;-52
2023/09/30 05:30:14;;;;;;;23.45;13.60;;;;;;;;;;1777975;80;25322;-55
2023/09/30 05:32:41;;;;;;;;;;;;;;;;;;1756973;80;25401;-53
2023/09/30 05:35:12;;;;;;;21.15;14.63;;;;;;;;;;1778054;80;27587;-53
2023/09/30 05:37:43;;;;;;;19.23;14.20;;;;;;;;;;1778163;80;25361;-53
2023/09/30 05:40:21;;;;;;;23.42;14.38;;;;;;;;;;1778102;80;27129;-55
2023/09/30 05:42:46;;;;;;;22.62;14.95;;;;;;;;;;1752797;80;25472;-56
2023/09/30 05:45:13;;;;;;;23.62;14.90;;;;;;;;;;1778053;80;25529;-53
2023/09/30 05:47:40;;;;;;;19.80;14.30;;;;;;;;;;1777983;80;25674;-56
2023/09/30 05:50:09;;;;;;;18.95;13.95;;;;;;;;;;1778136;80;25512;-53
2023/09/30 05:52:37;;;;;;;16.57;13.38;;;;;;;;;;1778207;80;27212;-55
2023/09/30 05:55:06;;;;;;;23.83;15.08;;;;;;;;;;1777966;80;25303;-53
2023/09/30 05:57:35;;;;;;;26.07;14.43;;;;;;;;;;1746547;80;29514;-55
2023/09/30 06:00:28;;;;;;;21.15;14.53;;;;;;;;;;1778124;80;25723;-53
2023/09/30 06:02:35;;;;;;;18.73;14.33;;;;;;;;;;1773272;80;25475;-53
2023/09/30 06:05:04;;;;;;;21.40;13.55;;;;;;;;;;1778046;80;27261;-55
2023/09/30 06:07:31;;;;;;;21.68;14.70;;;;;;;;;;1778027;80;25365;-53
2023/09/30 06:09:58;;;;;;;18.65;13.58;;;;;;;;;;1778099;80;25517;-56
2023/09/30 06:12:25;;;;;;;21.80;14.30;;;;;;;;;;1778045;80;25514;-52
2023/09/30 06:14:53;;;;;;;20.25;13.50;;;;;;;;;;1778074;80;25300;-56
2023/09/30 06:17:22;;;;;;;26.65;14.50;;;;;;;;;;1778068;80;27131;-55
2023/09/30 06:19:50;;;;;;;25.57;14.90;;;;;;;;;;1778162;80;25343;-53
2023/09/30 06:22:17;;;;;;;19.42;13.98;;;;;;;;;;1778088;80;25480;-55
2023/09/30 06:24:44;;;;;;;22.10;14.98;;;;;;;;;;1787274;77;26218;-53
2023/09/30 06:27:13;;;;;;;24.25;15.23;;;;;;;;;;1795044;80;25299;-53
2023/09/30 06:29:42;;;;;;;20.27;15.25;;;;;;;;;;1795157;80;27982;-56
2023/09/30 06:32:08;;;;;;;25.02;14.15;;;;;;;;;;1794994;80;25331;-56
2023/09/30 06:34:36;;;;;;;19.32;14.47;;;;;;;;;;1766057;80;25489;-53
2023/09/30 06:37:03;;;;;;;24.87;15.50;;;;;;;;;;1795026;80;25674;-56
2023/09/30 06:39:30;;;;;;;23.92;14.95;;;;;;;;;;1758495;77;25480;-55
2023/09/30 06:41:56;;;;;;;19.37;13.93;;;;;;;;;;1698179;84;27251;-54
2023/09/30 06:44:25;;;;;;;21.95;15.40;;;;;;;;;;1698066;84;25539;-56
2023/09/30 06:46:53;;;;;;;22.15;15.38;;;;;;;;;;1698159;84;25509;-55
2023/09/30 06:49:20;;;;;;;23.00;15.00;;;;;;;;;;1698043;84;25626;-56
2023/09/30 06:51:48;;;;;;;21.80;14.95;;;;;;;;;;1698166;84;25549;-57
2023/09/30 06:54:15;;;;;;;17.60;14.43;;;;;;;;;;1698211;84;27212;-58
2023/09/30 06:56:43;;;;;;;20.92;14.50;;;;;;;;;;1698202;84;25374;-56
2023/09/30 06:59:10;;;;;;;20.52;15.08;;;;;;;;;;1698258;84;25533;-56
2023/09/30 07:01:37;;;;;;;20.17;15.55;;;;;;;;;;1698166;84;25622;-52
2023/09/30 07:04:06;;;;;;;20.95;15.45;;;;;;;;;;1698175;84;25546;-53
2023/09/30 07:06:36;;;;;;;23.73;15.83;;;;;;;;;;1672652;84;27321;-53
2023/09/30 07:09:04;;;;;;;18.77;14.73;;;;;;;;;;1698309;84;25370;-55
2023/09/30 07:11:34;;;;;;;19.32;15.13;;;;;;;;;;1698252;84;25365;-56
2023/09/30 07:14:02;;;;;;;24.47;15.28;;;;;;;;;;1698276;84;26165;-56
2023/09/30 07:16:29;;;;;;;22.98;15.68;;;;;;;;;;1698367;84;25327;-55
2023/09/30 07:18:57;;;;;;;24.10;15.25;;;;;;;;;;1698466;84;27661;-56
2023/09/30 07:21:24;;;;;;;22.25;15.35;;;;;;;;;;1698231;84;25268;-56
2023/09/30 07:23:51;;;;;;;21.97;16.23;;;;;;;;;;1698427;84;25318;-56
2023/09/30 07:26:24;;;;;;;;;;;;;;;;;;1700789;84;25543;-55
2023/09/30 07:28:54;;;;;;;20.32;15.48;;;;;;;;;;1698273;84;25295;-57
2023/09/30 07:31:24;;;;;;;21.02;15.85;;;;;;;;;;1706845;78;27208;-56
2023/09/30 07:33:51;;;;;;;23.20;16.12;;;;;;;;;;1755275;80;25533;-56
2023/09/30 07:36:18;;;;;;;21.05;15.25;;;;;;;;;;1782727;80;25307;-55
2023/09/30 07:38:45;;;;;;;17.82;14.65;;;;;;;;;;1753907;80;25576;-55
2023/09/30 07:41:12;;;;;;;24.37;15.20;;;;;;;;;;1782804;80;25448;-56
2023/09/30 07:43:38;;;;;;;22.30;15.98;;;;;;;;;;1782825;80;27260;-56
2023/09/30 07:46:06;;;;;;;18.95;15.35;;;;;;;;;;1782668;80;25294;-56
2023/09/30 07:48:35;;;;;;;19.07;15.80;;;;;;;;;;1782657;80;25350;-55
2023/09/30 07:51:03;;;;;;;20.32;15.23;;;;;;;;;;1782667;80;25641;-52
2023/09/30 07:53:30;;;;;;;19.20;14.20;;;;;;;;;;1782959;80;25555;-56
2023/09/30 07:55:57;;;;;;;25.82;15.15;;;;;;;;;;1782672;80;27192;-53
2023/09/30 08:16:37;;;;;;;20.97;15.45;;;;;;;;;;1821044;77;26562;-53
2023/09/30 08:19:05;;;;;;;21.52;16.55;;;;;;;;;;1857921;77;25461;-55
2023/09/30 08:21:32;;;;;;;22.05;16.80;;;;;;;;;;1857923;77;26534;-57
2023/09/30 08:23:59;;;;;;;30.75;16.75;;;;;;;;;;1857782;77;25525;-54
2023/09/30 08:26:26;;;;;;;18.82;16.37;;;;;;;;;;1857859;77;25275;-55
2023/09/30 08:28:53;;;;;;;23.30;16.80;;;;;;;;;;1751577;74;25606;-53
2023/09/30 08:31:21;;;;;;;21.30;16.77;;;;;;;;;;1702329;84;25513;-55
2023/09/30 08:33:48;;;;;;;25.35;18.60;;;;;;;;;;1702293;84;27259;-56
2023/09/30 08:36:15;;;;;;;24.87;18.17;;;;;;;;;;1702278;84;25504;-57
2023/09/30 08:38:43;;;;;;;23.47;17.77;;;;;;;;;;1702421;84;25333;-53
2023/09/30 08:41:11;;;;;;;22.80;17.25;;;;;;;;;;1702317;84;25609;-55
2023/09/30 08:43:40;;;;;;;21.95;17.32;;;;;;;;;;1702355;84;25561;-55
2023/09/30 08:46:07;;;;;;;22.42;18.30;;;;;;;;;;1674096;84;27124;-53
2023/09/30 08:48:35;;;;;;;21.17;16.90;;;;;;;;;;1702243;84;25466;-53
2023/09/30 08:51:03;;;;;;;26.50;18.12;;;;;;;;;;1702329;84;25551;-54
2023/09/30 08:53:30;;;;;;;24.40;17.50;;;;;;;;;;1702284;84;26387;-54
2023/09/30 08:56:06;;;;;;;23.38;18.10;;;;;;;;;;1702346;84;25529;-54
2023/09/30 08:58:28;;;;;;;25.95;21.52;;;;;;;;;;1701145;84;27283;-52
2023/09/30 09:00:56;;;;;;;22.52;17.98;;;;;;;;;;1702385;84;25538;-55
2023/09/30 09:03:24;;;;;;;22.35;17.90;;;;;;;;;;1702331;84;25364;-53
2023/09/30 09:05:56;;;;;;;21.50;17.25;;;;;;;;;;1674091;84;26001;-53
2023/09/30 09:08:25;;;;;;;22.10;17.57;;;;;;;;;;1702234;84;25522;-55
2023/09/30 09:10:57;;;;;;;21.25;17.00;;;;;;;;;;1702505;84;27379;-54
2023/09/30 09:13:25;;;;;;;24.67;17.80;;;;;;;;;;1702211;84;25306;-57
2023/09/30 09:16:11;;;;;;;20.80;17.48;;;;;;;;;;1702307;84;25388;-53
2023/09/30 09:18:38;;;;;;;23.38;17.57;;;;;;;;;;1702293;84;25695;-56
2023/09/30 09:21:12;;;;;;;26.27;18.42;;;;;;;;;;1702308;84;25490;-54
2023/09/30 09:23:40;;;;;;;23.73;17.75;;;;;;;;;;1674221;84;29463;-56
2023/09/30 09:26:09;;;;;;;21.05;17.55;;;;;;;;;;1702382;84;25591;-56
2023/09/30 09:28:39;;;;;;;19.32;16.82;;;;;;;;;;1713028;81;25428;-53
2023/09/30 09:31:17;;;;;;;;;;;;;;;;;;1764181;81;27892;-53
2023/09/30 09:33:44;;;;;;;24.60;18.73;;;;;;;;;;1727514;82;25521;-52
2023/09/30 09:36:11;;;;;;;22.73;17.87;;;;;;;;;;1761661;81;27288;-54
2023/09/30 09:38:53;;;;;;;25.57;19.55;;;;;;;;;;1761436;81;25325;-56
2023/09/30 09:41:20;;;;;;;24.05;18.00;;;;;;;;;;1761577;81;25489;-53
2023/09/30 09:43:50;;;;;;;22.45;18.85;;;;;;;;;;1703800;83;26202;-55
2023/09/30 09:46:18;;;;;;;24.15;19.17;;;;;;;;;;1761529;81;25323;-54
2023/09/30 09:48:47;;;;;;;25.30;20.12;;;;;;;;;;1727658;82;27191;-57
2023/09/30 09:51:14;;;;;;;25.75;20.65;;;;;;;;;;1703859;83;25379;-55
2023/09/30 09:53:43;;;;;;;25.62;21.23;;;;;;;;;;1727674;82;25312;-58
2023/09/30 09:56:11;;;;;;;;;;;;;;;;;;1709734;83;25674;-55
2023/09/30 09:58:42;;;;;;;27.27;21.30;;;;;;;;;;1733326;82;25459;-54
2023/09/30 10:01:10;;;;;;;24.82;20.52;;;;;;;;;;1725719;83;27210;-53
2023/09/30 10:03:38;;;;;;;27.17;21.50;;;;;;;;;;1725606;82;25377;-55
2023/09/30 10:06:06;;;;;;;33.70;25.95;;;;;;;;;;1725876;82;25556;-55
2023/09/30 10:08:41;;;;;;;30.85;26.25;;;;;;;;;;1725714;82;25676;-55
2023/09/30 10:11:11;;;;;;;30.00;22.20;;;;;;;;;;1738957;81;25579;-58
2023/09/30 10:13:53;;;;;;;28.02;21.33;;;;;;;;;;1727200;82;27852;-60
2023/09/30 10:16:39;;;;;;;28.02;22.27;;;;;;;;;;1727811;82;25572;-59
2023/09/30 10:19:12;;;;;;;29.32;22.80;;;;;;;;;;1761728;81;25516;-59
2023/09/30 10:21:40;;;;;;;26.97;22.17;;;;;;;;;;1726325;82;25627;-54
2023/09/30 10:24:27;;;;;;;27.77;22.93;;;;;;;;;;1761688;81;25556;-60
2023/09/30 10:27:23;;;;;;;29.75;21.93;;;;;;;;;;1727790;83;27218;-60
2023/09/30 10:30:17;;;;;;;27.93;22.62;;;;;;;;;;1742528;81;25303;-57
2023/09/30 10:32:54;;;;;;;22.05;19.23;;;;;;;;;;1745143;82;25474;-57
2023/09/30 10:35:34;;;;;;;27.27;19.87;;;;;;;;;;1745226;82;26061;-58
2023/09/30 10:38:27;;;;;;;23.67;18.90;;;;;;;;;;1745270;82;25719;-58
2023/09/30 10:40:54;;;;;;;22.30;16.73;;;;;;;;;;1685730;85;27277;-57
2023/09/30 10:43:39;;;;;;;22.77;17.62;;;;;;;;;;1698220;84;25643;-58
2023/09/30 10:46:29;;;;;;;22.00;15.83;;;;;;;;;;1697509;84;25602;-56
2023/09/30 10:48:57;;;;;;;22.22;16.15;;;;;;;;;;1676135;84;25903;-58
2023/09/30 10:51:24;;;;;;;21.00;16.07;;;;;;;;;;1699904;84;25369;-58
2023/09/30 10:53:55;;;;;;;19.42;13.98;;;;;;;;;;1699955;84;27415;-59
2023/09/30 10:56:21;;;;;;;14.95;12.18;;;;;;;;;;1699862;84;25569;-57
2023/09/30 10:58:50;;;;;;;17.02;12.73;;;;;;;;;;1699906;84;25568;-58
2023/09/30 11:01:23;;;;;;;15.23;11.35;;;;;;;;;;1700041;84;25755;-59
2023/09/30 11:03:51;;;;;;;13.20;10.70;;;;;;;;;;1699966;84;25574;-59
2023/09/30 11:06:20;;;;;;;10.45;8.15;;;;;;;;;;1676348;84;27278;-57
2023/09/30 11:08:56;;;;;;;13.18;7.87;;;;;;;;;;1699853;84;25410;-56
2023/09/30 11:11:43;;;;;;;9.00;7.28;;;;;;;;;;1699932;84;25473;-55
2023/09/30 11:14:30;;;;;;;11.10;6.35;;;;;;;;;;1699760;84;25677;-58
2023/09/30 11:17:03;;;;;;;9.00;6.78;;;;;;;;;;1717220;81;25415;-55
2023/09/30 11:19:39;;;;;;;10.40;6.03;;;;;;;;;;1746662;82;27191;-57
2023/09/30 11:22:06;;;;;;;6.12;5.03;;;;;;;;;;1745217;82;25809;-57
2023/09/30 11:24:37;;;;;;;6.45;4.78;;;;;;;;;;1746668;82;25317;-56
2023/09/30 11:27:08;;;;;;;8.50;4.55;;;;;;;;;;1746572;82;25655;-54
2023/09/30 11:29:33;;;;;;;6.85;3.90;;;;;;;;;;1751565;81;25736;-58
2023/09/30 11:32:01;;;;;;;7.87;4.35;;;;;;;;;;1727811;82;27444;-58
2023/09/30 11:34:33;;;;;;;5.37;3.45;;;;;;;;;;1761654;81;25713;-58
2023/09/30 11:37:01;;;;;;;11.03;4.58;;;;;;;;;;1727038;82;25525;-58
2023/09/30 11:39:30;;;;;;;44.98;39.45;;;;;;;;;;1727682;82;25691;-56
2023/09/30 11:41:57;;;;;;;10.75;5.90;;;;;;;;;;1727723;82;25485;-54
2023/09/30 11:44:26;;;;;;;7.92;4.85;;;;;;;;;;1720772;82;27270;-55
2023/09/30 11:46:59;;;;;;;8.78;3.85;;;;;;;;;;1761636;81;25340;-55
2023/09/30 11:49:40;;;;;;;8.33;3.65;;;;;;;;;;1761679;81;25520;-54
2023/09/30 11:52:09;;;;;;;7.78;3.67;;;;;;;;;;1727660;83;25795;-58
2023/09/30 11:54:46;;;;;;;7.62;3.40;;;;;;;;;;1761822;81;25526;-55
2023/09/30 11:57:15;;;;;;;9.78;3.60;;;;;;;;;;1727796;82;27899;-59
2023/09/30 11:59:47;;;;;;;9.15;3.47;;;;;;;;;;1761678;81;33526;-58
2023/09/30 12:02:17;;;;;;;10.25;3.40;;;;;;;;;;1761623;81;25279;-56
2023/09/30 12:04:45;;;;;;;6.70;3.90;;;;;;;;;;1761611;81;25609;-57
2023/09/30 12:07:13;;;;;;;7.90;3.80;;;;;;;;;;1761616;81;25331;-56
2023/09/30 12:09:40;;;;;;;11.43;3.80;;;;;;;;;;1761609;81;27549;-57
2023/09/30 12:12:09;;;;;;;7.65;3.92;;;;;;;;;;1727593;82;25441;-57
2023/09/30 12:14:36;;;;;;;8.83;4.30;;;;;;;;;;1733317;82;25538;-55
2023/09/30 12:17:04;;;;;;;9.58;4.67;;;;;;;;;;1725612;83;25656;-56
2023/09/30 12:19:32;;;;;;;9.20;3.92;;;;;;;;;;1761710;81;25461;-56
2023/09/30 12:21:59;;;;;;;9.73;4.17;;;;;;;;;;1727712;83;29288;-57
2023/09/30 12:24:27;;;;;;;8.25;4.12;;;;;;;;;;1761545;81;25290;-56
2023/09/30 12:26:55;;;;;;;8.78;3.85;;;;;;;;;;1761619;81;25469;-53
2023/09/30 12:29:23;;;;;;;6.70;3.37;;;;;;;;;;1752857;81;25621;-57
2023/09/30 12:31:52;;;;;;;8.50;3.90;;;;;;;;;;1736407;81;25467;-56
2023/09/30 12:34:23;;;;;;;12.23;4.22;;;;;;;;;;1735586;82;27731;-57
2023/09/30 12:36:49;;;;;;;;;;;;;;;;;;1738631;82;25470;-57
2023/09/30 12:39:17;;;;;;;6.87;3.37;;;;;;;;;;1736129;81;25378;-57
2023/09/30 12:41:44;;;;;;;6.78;2.90;;;;;;;;;;1736045;82;26582;-59
2023/09/30 12:44:12;;;;;;;8.80;3.80;;;;;;;;;;1736108;82;25404;-56
2023/09/30 12:46:40;;;;;;;6.90;2.92;;;;;;;;;;1736000;82;27207;-59
2023/09/30 12:49:08;;;;;;;9.28;3.30;;;;;;;;;;1735944;82;25379;-59
2023/09/30 12:51:37;;;;;;;8.63;3.25;;;;;;;;;;1735277;82;25479;-58
2023/09/30 12:54:07;;;;;;;8.83;4.12;;;;;;;;;;1734891;82;26270;-60
2023/09/30 12:56:41;;;;;;;8.70;3.98;;;;;;;;;;1734768;81;25545;-58
2023/09/30 12:59:09;;;;;;;9.50;3.22;;;;;;;;;;1734733;81;27224;-57
2023/09/30 13:01:39;;;;;;;7.45;3.20;;;;;;;;;;1734780;82;25622;-55
2023/09/30 13:04:12;;;;;;;12.03;4.33;;;;;;;;;;1734734;82;26144;-53
2023/09/30 13:06:43;;;;;;;16.85;11.18;;;;;;;;;;1735012;82;26311;-52
2023/09/30 13:09:17;;;;;;;14.60;8.90;;;;;;;;;;1655573;86;25641;-52
2023/09/30 13:11:50;;;;;;;10.85;3.98;;;;;;;;;;1655490;86;27819;-52
2023/09/30 13:14:19;;;;;;;10.08;3.77;;;;;;;;;;1655388;86;25548;-52
2023/09/30 13:16:48;;;;;;;18.10;8.85;;;;;;;;;;1633280;86;25502;-53
2023/09/30 13:19:21;;;;;;;14.83;7.87;;;;;;;;;;1655566;86;25800;-52
2023/09/30 13:21:50;;;;;;;6.30;3.12;;;;;;;;;;1655523;86;25588;-54
2023/09/30 13:24:20;;;;;;;7.28;3.10;;;;;;;;;;1633496;86;27229;-51
2023/09/30 13:26:48;;;;;;;7.65;3.72;;;;;;;;;;1654565;86;25761;-51
2023/09/30 13:29:20;;;;;;;11.22;3.62;;;;;;;;;;1635913;85;25442;-53
2023/09/30 13:31:45;;;;;;;11.10;3.35;;;;;;;;;;1647911;85;26056;-51
2023/09/30 13:34:12;;;;;;;6.67;4.40;;;;;;;;;;1672042;85;25525;-54
2023/09/30 13:36:40;;;;;;;5.92;3.12;;;;;;;;;;1672012;85;27867;-52
2023/09/30 13:39:12;;;;;;;6.70;3.12;;;;;;;;;;1671980;85;25626;-51
2023/09/30 13:41:40;;;;;;;9.35;3.00;;;;;;;;;;1641216;87;25515;-53
2023/09/30 13:44:08;;;;;;;7.00;2.72;;;;;;;;;;1649837;85;25620;-55
2023/09/30 13:46:39;;;;;;;8.73;3.85;;;;;;;;;;1712985;81;25300;-55
2023/09/30 13:49:08;;;;;;;10.28;4.03;;;;;;;;;;1767203;81;27199;-55
2023/09/30 13:51:42;;;;;;;11.60;3.07;;;;;;;;;;1767344;81;25533;-55
2023/09/30 13:54:12;;;;;;;10.65;3.10;;;;;;;;;;1767155;81;25354;-51
2023/09/30 13:56:45;;;;;;;6.25;2.98;;;;;;;;;;1767311;81;25868;-56
2023/09/30 13:59:16;;;;;;;12.82;3.67;;;;;;;;;;1767208;81;25543;-54
2023/09/30 14:01:46;;;;;;;8.83;4.25;;;;;;;;;;1767229;81;27183;-55
2023/09/30 14:04:16;;;;;;;9.40;3.90;;;;;;;;;;1767065;81;25539;-55
2023/09/30 14:06:47;;;;;;;10.10;3.08;;;;;;;;;;1767103;81;25523;-51
2023/09/30 14:09:19;;;;;;;8.00;2.95;;;;;;;;;;1767129;81;25648;-55
2023/09/30 14:11:47;;;;;;;8.20;3.17;;;;;;;;;;1767155;81;25631;-52
2023/09/30 14:14:15;;;;;;;8.03;3.05;;;;;;;;;;1767112;81;27611;-51
2023/09/30 14:16:42;;;;;;;4.92;3.00;;;;;;;;;;1767067;81;27039;-54
2023/09/30 14:19:10;;;;;;;6.50;2.65;;;;;;;;;;1767131;81;25507;-50
2023/09/30 14:21:37;;;;;;;8.08;3.30;;;;;;;;;;1767063;81;25744;-51
2023/09/30 14:24:07;;;;;;;7.05;2.83;;;;;;;;;;1767140;81;25375;-52
2023/09/30 14:26:36;;;;;;;7.70;3.50;;;;;;;;;;1767088;81;27213;-52
2023/09/30 14:29:03;;;;;;;7.12;3.55;;;;;;;;;;1767082;81;25527;-53
2023/09/30 14:31:31;;;;;;;11.50;3.42;;;;;;;;;;1761807;81;25289;-49
2023/09/30 14:33:58;;;;;;;9.18;2.65;;;;;;;;;;1727732;82;26209;-53
2023/09/30 14:36:26;;;;;;;5.78;2.35;;;;;;;;;;1761687;81;25288;-56
2023/09/30 14:38:54;;;;;;;7.28;2.12;;;;;;;;;;1728055;82;27522;-53
2023/09/30 14:41:21;;;;;;;6.72;3.12;;;;;;;;;;1761559;81;25490;-51
2023/09/30 14:43:49;;;;;;;61.48;52.83;;;;;;;;;;1761654;81;25302;-53
2023/09/30 14:46:17;;;;;;;12.93;9.05;;;;;;;;;;1727697;83;25621;-54
2023/09/30 14:48:45;;;;;;;8.35;2.80;;;;;;;;;;1761839;81;25485;-56
2023/09/30 14:51:12;;;;;;;8.60;2.27;;;;;;;;;;1761665;81;27641;-53